createdAt,value
2023-05-22T00:01:56.143Z,5.30
2023-05-22T00:04:22.933Z,5.07
2023-05-22T00:06:49.910Z,5.00
2023-05-22T00:09:16.684Z,5.50
2023-05-22T00:11:43.523Z,5.47
2023-05-22T00:14:10.338Z,5.35
2023-05-22T00:16:37.221Z,5.32
2023-05-22T00:19:04.475Z,5.30
2023-05-22T00:21:34.848Z,5.32
2023-05-22T00:24:02.233Z,5.30
2023-05-22T00:26:28.989Z,5.30
2023-05-22T00:28:55.884Z,5.32
2023-05-22T00:31:23.482Z,5.35
2023-05-22T00:33:50.515Z,5.03
2023-05-22T00:36:18.695Z,5.05
2023-05-22T00:38:46.359Z,4.97
2023-05-22T00:41:13.451Z,5.00
2023-05-22T00:43:40.447Z,5.22
2023-05-22T00:46:07.890Z,5.20
2023-05-22T00:48:34.892Z,5.22
2023-05-22T00:51:01.859Z,5.30
2023-05-22T00:53:30.221Z,5.22
2023-05-22T00:55:57.667Z,5.13
2023-05-22T00:58:26.808Z,5.28
2023-05-22T01:00:53.662Z,5.47
2023-05-22T01:03:26.178Z,5.15
2023-05-22T01:05:56.233Z,5.15
2023-05-22T01:08:23.146Z,4.85
2023-05-22T01:11:29.434Z,5.25
2023-05-22T01:14:14.763Z,4.88
2023-05-22T01:16:52.825Z,5.28
2023-05-22T01:19:43.791Z,5.13
2023-05-22T01:22:51.488Z,5.10
2023-05-22T01:25:30.370Z,4.90
2023-05-22T01:28:24.704Z,5.38
2023-05-22T01:31:00.310Z,5.10
2023-05-22T01:33:29.017Z,5.15
2023-05-22T01:35:57.827Z,5.18
2023-05-22T01:38:25.185Z,5.20
2023-05-22T01:40:52.715Z,5.40
2023-05-22T01:43:20.016Z,4.90
2023-05-22T01:45:47.078Z,4.90
2023-05-22T01:48:13.796Z,4.78
2023-05-22T01:50:40.929Z,4.97
2023-05-22T01:53:18.420Z,5.30
2023-05-22T01:56:05.687Z,4.93
2023-05-22T01:58:34.788Z,5.15
2023-05-22T02:01:03.579Z,4.90
2023-05-22T02:03:32.209Z,4.80
2023-05-22T02:06:00.493Z,4.97
2023-05-22T02:08:28.004Z,4.55
2023-05-22T02:10:56.225Z,4.90
2023-05-22T02:13:23.603Z,5.07
2023-05-22T02:15:50.711Z,5.20
2023-05-22T02:18:17.723Z,5.00
2023-05-22T02:20:46.363Z,4.68
2023-05-22T02:23:13.319Z,4.40
2023-05-22T02:25:40.037Z,4.20
2023-05-22T02:28:06.778Z,4.40
2023-05-22T02:30:33.578Z,4.72
2023-05-22T02:33:00.627Z,4.70
2023-05-22T02:35:27.497Z,4.68
2023-05-22T02:37:54.393Z,4.75
2023-05-22T02:40:21.375Z,4.55
2023-05-22T02:42:48.089Z,4.60
2023-05-22T02:45:15.698Z,4.45
2023-05-22T02:47:42.453Z,4.57
2023-05-22T02:50:09.536Z,4.50
2023-05-22T02:52:37.249Z,4.60
2023-05-22T02:55:04.610Z,4.60
2023-05-22T02:57:31.605Z,4.50
2023-05-22T02:59:59.292Z,4.50
2023-05-22T03:02:28.516Z,4.75
2023-05-22T03:04:55.494Z,4.57
2023-05-22T03:07:22.200Z,4.45
2023-05-22T03:09:49.030Z,4.60
2023-05-22T03:12:15.946Z,4.45
2023-05-22T03:14:42.697Z,4.57
2023-05-22T03:17:09.499Z,4.70
2023-05-22T03:19:36.487Z,4.35
2023-05-22T03:22:03.924Z,4.65
2023-05-22T03:24:31.553Z,4.28
2023-05-22T03:27:00.004Z,4.93
2023-05-22T03:29:38.413Z,4.32
2023-05-22T03:32:05.512Z,4.10
2023-05-22T03:34:32.477Z,4.25
2023-05-22T03:37:00.513Z,3.97
2023-05-22T03:39:27.429Z,4.20
2023-05-22T03:41:59.337Z,4.38
2023-05-22T03:44:27.030Z,4.57
2023-05-22T03:46:54.594Z,4.50
2023-05-22T03:49:21.347Z,4.80
2023-05-22T03:51:48.032Z,4.60
2023-05-22T03:54:16.086Z,4.40
2023-05-22T03:56:43.503Z,4.55
2023-05-22T03:59:10.373Z,4.32
2023-05-22T04:01:39.475Z,4.30
2023-05-22T04:04:06.382Z,4.60
2023-05-22T04:06:33.159Z,4.50
2023-05-22T04:09:00.811Z,4.43
2023-05-22T04:11:30.485Z,4.53
2023-05-22T04:13:57.273Z,4.50
2023-05-22T04:16:24.107Z,4.07
2023-05-22T04:18:51.065Z,4.30
2023-05-22T04:21:19.148Z,4.57
2023-05-22T04:23:45.891Z,4.25
2023-05-22T04:26:13.346Z,4.60
2023-05-22T04:28:40.480Z,4.90
2023-05-22T04:31:07.361Z,5.20
2023-05-22T04:33:38.675Z,4.80
2023-05-22T04:36:06.932Z,4.45
2023-05-22T04:38:37.240Z,4.53
2023-05-22T04:41:04.070Z,4.60
2023-05-22T04:43:32.406Z,4.57
2023-05-22T04:45:59.180Z,4.65
2023-05-22T04:48:26.008Z,4.70
2023-05-22T04:50:54.331Z,4.72
2023-05-22T04:53:21.209Z,4.75
2023-05-22T04:55:48.057Z,4.80
2023-05-22T04:58:15.289Z,4.82
2023-05-22T05:00:42.331Z,4.80
2023-05-22T05:03:11.933Z,4.28
2023-05-22T05:05:38.858Z,4.93
2023-05-22T05:08:05.966Z,4.60
2023-05-22T05:10:32.840Z,4.97
2023-05-22T05:12:59.762Z,4.82
2023-05-22T05:15:28.158Z,4.57
2023-05-22T05:17:55.975Z,4.63
2023-05-22T05:20:22.741Z,4.70
2023-05-22T05:22:49.547Z,4.80
2023-05-22T05:25:17.367Z,5.07
2023-05-22T05:27:44.226Z,4.72
2023-05-22T05:30:11.626Z,4.45
2023-05-22T05:33:04.673Z,4.80
2023-05-22T05:35:35.853Z,4.68
2023-05-22T05:38:09.004Z,5.13
2023-05-22T05:40:38.279Z,4.85
2023-05-22T05:43:09.289Z,4.72
2023-05-22T05:45:36.566Z,4.57
2023-05-22T05:48:03.508Z,4.72
2023-05-22T05:50:30.743Z,4.90
2023-05-22T05:52:57.979Z,5.20
2023-05-22T05:55:24.880Z,4.65
2023-05-22T05:57:52.379Z,4.78
2023-05-22T06:00:26.193Z,4.90
2023-05-22T06:02:54.189Z,5.03
2023-05-22T06:05:45.922Z,4.90
2023-05-22T06:08:42.477Z,4.68
2023-05-22T06:11:09.521Z,4.68
2023-05-22T06:13:39.012Z,4.95
2023-05-22T06:16:07.003Z,5.30
2023-05-22T06:18:34.771Z,4.90
2023-05-22T06:21:01.715Z,4.82
2023-05-22T06:23:28.494Z,5.00
2023-05-22T06:25:56.262Z,4.90
2023-05-22T06:28:24.083Z,4.93
2023-05-22T06:30:51.168Z,5.13
2023-05-22T06:33:20.499Z,4.93
2023-05-22T06:35:47.780Z,5.30
2023-05-22T06:38:15.915Z,4.70
2023-05-22T06:40:43.547Z,5.10
2023-05-22T06:43:18.430Z,5.20
2023-05-22T06:45:59.280Z,4.88
2023-05-22T06:48:49.466Z,5.00
2023-05-22T06:51:24.986Z,5.00
2023-05-22T06:53:56.975Z,4.50
2023-05-22T06:56:28.715Z,4.75
2023-05-22T06:59:03.424Z,4.88
2023-05-22T07:01:56.800Z,4.68
2023-05-22T07:04:49.544Z,4.80
2023-05-22T07:09:51.524Z,4.50
2023-05-22T07:12:18.661Z,4.47
2023-05-22T07:14:45.425Z,4.82
2023-05-22T07:17:13.001Z,4.68
2023-05-22T07:19:43.464Z,4.65
2023-05-22T07:22:10.240Z,4.43
2023-05-22T07:24:39.229Z,4.55
2023-05-22T07:27:06.939Z,4.50
2023-05-22T07:29:34.062Z,4.40
2023-05-22T07:32:02.021Z,4.18
2023-05-22T07:34:34.457Z,4.72
2023-05-22T07:37:09.284Z,4.50
2023-05-22T07:39:36.274Z,4.38
2023-05-22T07:42:04.977Z,4.00
2023-05-22T07:44:34.615Z,4.47
2023-05-22T07:47:01.846Z,4.40
2023-05-22T07:49:29.877Z,4.22
2023-05-22T07:51:56.636Z,4.20
2023-05-22T07:54:25.748Z,4.07
2023-05-22T07:56:52.913Z,4.68
2023-05-22T07:59:22.027Z,4.40
2023-05-22T08:01:50.212Z,4.35
2023-05-22T08:04:17.245Z,4.03
2023-05-22T08:06:44.444Z,4.30
2023-05-22T08:09:11.284Z,4.03
2023-05-22T08:11:40.180Z,4.40
2023-05-22T08:14:07.847Z,4.30
2023-05-22T08:16:35.124Z,4.00
2023-05-22T08:19:02.228Z,4.20
2023-05-22T08:21:28.966Z,4.25
2023-05-22T08:23:55.698Z,4.20
2023-05-22T08:26:25.207Z,4.28
2023-05-22T08:28:52.475Z,4.00
2023-05-22T08:31:19.280Z,4.30
2023-05-22T08:33:46.142Z,4.10
2023-05-22T08:36:13.414Z,4.18
2023-05-22T08:38:41.302Z,3.85
2023-05-22T08:41:08.924Z,4.10
2023-05-22T08:43:35.824Z,4.40
2023-05-22T08:46:06.253Z,4.00
2023-05-22T08:48:33.522Z,3.90
2023-05-22T08:51:04.494Z,3.83
2023-05-22T08:53:34.702Z,4.00
2023-05-22T08:56:02.641Z,4.15
2023-05-22T08:58:29.517Z,4.18
2023-05-22T09:00:56.409Z,4.10
2023-05-22T09:03:23.497Z,3.90
2023-05-22T09:05:50.504Z,3.75
2023-05-22T09:08:20.862Z,3.90
2023-05-22T09:10:48.178Z,3.88
2023-05-22T09:13:25.270Z,3.83
2023-05-22T09:15:52.064Z,3.70
2023-05-22T09:18:19.053Z,4.00
2023-05-22T09:20:45.951Z,3.60
2023-05-22T09:23:20.417Z,4.05
2023-05-22T09:25:47.751Z,3.72
2023-05-22T09:28:14.498Z,3.75
2023-05-22T09:30:42.597Z,3.80
2023-05-22T09:33:14.280Z,3.78
2023-05-22T09:35:42.180Z,4.00
2023-05-22T09:38:10.216Z,3.92
2023-05-22T09:40:39.129Z,3.92
2023-05-22T09:43:09.763Z,3.78
2023-05-22T09:45:37.726Z,4.10
2023-05-22T09:48:09.240Z,3.60
2023-05-22T09:50:36.988Z,3.83
2023-05-22T09:53:05.052Z,3.53
2023-05-22T09:55:32.300Z,3.60
2023-05-22T09:58:04.333Z,3.60
2023-05-22T10:00:34.257Z,3.58
2023-05-22T10:03:09.471Z,3.58
2023-05-22T10:05:38.105Z,3.50
2023-05-22T10:08:12.106Z,3.78
2023-05-22T10:10:39.459Z,3.67
2023-05-22T10:13:06.637Z,3.35
2023-05-22T10:15:33.955Z,3.55
2023-05-22T10:18:01.501Z,3.40
2023-05-22T10:20:29.355Z,3.50
2023-05-22T10:22:56.654Z,3.60
2023-05-22T10:25:23.542Z,3.38
2023-05-22T10:27:53.204Z,3.20
2023-05-22T10:30:24.196Z,3.70
2023-05-22T10:33:24.276Z,3.67
2023-05-22T10:36:14.302Z,3.67
2023-05-22T10:38:54.241Z,3.30
2023-05-22T10:41:22.825Z,3.50
2023-05-22T10:43:50.407Z,3.30
2023-05-22T10:46:18.382Z,3.53
2023-05-22T10:48:47.644Z,3.15
2023-05-22T10:51:21.473Z,3.40
2023-05-22T10:54:06.744Z,3.50
2023-05-22T10:59:05.424Z,3.63
2023-05-22T11:01:36.466Z,3.60
2023-05-22T11:04:12.243Z,3.20
2023-05-22T11:06:47.398Z,3.30
2023-05-22T11:09:20.034Z,3.28
2023-05-22T11:11:47.279Z,3.42
2023-05-22T11:14:18.816Z,3.28
2023-05-22T11:16:45.837Z,3.15
2023-05-22T11:19:23.170Z,3.10
2023-05-22T11:21:50.786Z,3.38
2023-05-22T11:24:18.315Z,3.10
2023-05-22T11:27:01.434Z,3.30
2023-05-22T11:29:29.301Z,3.83
2023-05-22T11:31:57.356Z,2.88
2023-05-22T11:34:25.072Z,3.28
2023-05-22T11:36:59.904Z,3.40
2023-05-22T11:41:53.670Z,3.03
2023-05-22T11:44:20.596Z,3.20
2023-05-22T11:46:47.629Z,3.08
2023-05-22T11:49:14.374Z,2.80
2023-05-22T11:51:41.111Z,2.83
2023-05-22T11:54:08.054Z,2.95
2023-05-22T11:56:34.808Z,3.10
2023-05-22T11:59:01.560Z,3.05
2023-05-22T12:01:28.293Z,3.55
2023-05-22T12:03:55.186Z,2.95
2023-05-22T12:06:22.235Z,3.30
2023-05-22T12:08:49.044Z,3.15
2023-05-22T12:11:15.773Z,3.20
2023-05-22T12:13:42.550Z,3.25
2023-05-22T12:16:20.101Z,3.40
2023-05-22T12:18:46.940Z,3.00
2023-05-22T12:21:13.769Z,3.28
2023-05-22T12:23:49.471Z,3.22
2023-05-22T12:26:17.024Z,3.20
2023-05-22T12:28:44.167Z,3.10
2023-05-22T12:31:10.990Z,3.20
2023-05-22T12:33:39.591Z,3.08
2023-05-22T12:36:10.283Z,3.40
2023-05-22T12:38:38.410Z,3.20
2023-05-22T12:41:05.922Z,3.25
2023-05-22T12:43:33.001Z,3.10
2023-05-22T12:46:01.047Z,3.30
2023-05-22T12:48:29.358Z,3.20
2023-05-22T12:50:56.231Z,3.10
2023-05-22T12:53:22.927Z,3.20
2023-05-22T12:55:49.837Z,3.25
2023-05-22T12:58:16.716Z,3.38
2023-05-22T13:00:43.585Z,3.40
2023-05-22T13:03:12.088Z,3.25
2023-05-22T13:05:39.161Z,3.20
2023-05-22T13:08:06.030Z,3.15
2023-05-22T13:10:32.876Z,3.20
2023-05-22T13:12:59.663Z,3.15
2023-05-22T13:15:29.696Z,3.20
2023-05-22T13:17:56.985Z,3.05
2023-05-22T13:20:23.746Z,3.20
2023-05-22T13:22:50.521Z,3.28
2023-05-22T13:25:19.146Z,3.33
2023-05-22T13:27:46.412Z,3.20
2023-05-22T13:30:13.505Z,3.00
2023-05-22T13:32:40.479Z,3.22
2023-05-22T13:35:07.513Z,3.30
2023-05-22T13:37:34.252Z,3.60
2023-05-22T13:40:01.101Z,3.00
2023-05-22T13:42:27.838Z,3.03
2023-05-22T13:44:54.668Z,3.15
2023-05-22T13:47:23.083Z,3.13
2023-05-22T13:49:50.686Z,3.08
2023-05-22T13:52:17.559Z,3.20
2023-05-22T13:54:44.288Z,3.40
2023-05-22T13:57:11.153Z,2.92
2023-05-22T13:59:37.823Z,3.20
2023-05-22T14:02:04.894Z,3.22
2023-05-22T14:04:31.689Z,3.20
2023-05-22T14:06:58.438Z,3.00
2023-05-22T14:09:25.478Z,3.20
2023-05-22T14:11:52.179Z,3.30
2023-05-22T14:14:23.981Z,3.13
2023-05-22T14:16:54.170Z,3.47
2023-05-22T14:19:21.145Z,3.30
2023-05-22T14:21:49.582Z,3.00
2023-05-22T14:24:16.516Z,3.15
2023-05-22T14:26:44.187Z,2.92
2023-05-22T14:29:11.948Z,3.03
2023-05-22T14:31:51.434Z,2.95
2023-05-22T14:34:18.881Z,3.20
2023-05-22T14:36:46.207Z,3.03
2023-05-22T14:39:13.022Z,3.30
2023-05-22T14:41:39.800Z,3.40
2023-05-22T14:44:06.688Z,3.20
2023-05-22T14:46:33.476Z,3.10
2023-05-22T14:49:00.351Z,2.85
2023-05-22T14:51:27.118Z,3.10
2023-05-22T14:53:54.002Z,2.75
2023-05-22T14:56:21.852Z,3.13
2023-05-22T14:58:48.755Z,3.00
2023-05-22T15:01:15.701Z,3.10
2023-05-22T15:03:43.499Z,3.13
2023-05-22T15:06:10.166Z,2.85
2023-05-22T15:08:36.934Z,3.10
2023-05-22T15:11:03.801Z,3.00
2023-05-22T15:13:30.513Z,2.78
2023-05-22T15:15:58.409Z,3.10
2023-05-22T15:18:27.017Z,3.22
2023-05-22T15:20:53.951Z,2.92
2023-05-22T15:23:25.166Z,2.70
2023-05-22T15:25:53.485Z,3.10
2023-05-22T15:28:20.844Z,2.97
2023-05-22T15:30:47.921Z,3.05
2023-05-22T15:33:15.097Z,2.90
2023-05-22T15:35:43.519Z,2.97
2023-05-22T15:38:12.618Z,3.40
2023-05-22T15:40:40.871Z,2.90
2023-05-22T15:43:08.056Z,2.70
2023-05-22T15:45:37.971Z,2.00
2023-05-22T15:48:05.760Z,2.60
2023-05-22T15:50:33.881Z,2.50
2023-05-22T15:53:01.041Z,2.60
2023-05-22T15:55:28.416Z,2.50
2023-05-22T15:57:55.212Z,2.63
2023-05-22T16:00:22.018Z,2.40
2023-05-22T16:02:49.500Z,2.58
2023-05-22T16:05:16.425Z,2.80
2023-05-22T16:07:43.403Z,2.60
2023-05-22T16:10:10.810Z,2.60
2023-05-22T16:12:39.913Z,2.85
2023-05-22T16:15:07.585Z,2.53
2023-05-22T16:17:34.504Z,2.70
2023-05-22T16:20:01.504Z,2.63
2023-05-22T16:22:40.042Z,2.72
2023-05-22T16:25:15.832Z,2.50
2023-05-22T16:27:42.870Z,3.13
2023-05-22T16:30:11.240Z,2.63
2023-05-22T16:32:38.486Z,2.83
2023-05-22T16:35:05.610Z,2.88
2023-05-22T16:37:33.406Z,2.60
2023-05-22T16:40:00.377Z,2.63
2023-05-22T16:42:27.308Z,2.90
2023-05-22T16:44:54.222Z,3.25
2023-05-22T16:47:21.923Z,2.95
2023-05-22T16:49:49.519Z,2.75
2023-05-22T16:52:18.064Z,2.70
2023-05-22T16:54:44.889Z,2.80
2023-05-22T16:57:11.804Z,2.90
2023-05-22T16:59:38.764Z,2.90
2023-05-22T17:02:05.644Z,2.83
2023-05-22T17:04:32.415Z,2.80
2023-05-22T17:06:59.203Z,2.85
2023-05-22T17:09:27.559Z,3.45
2023-05-22T17:11:54.715Z,3.25
2023-05-22T17:14:26.223Z,2.95
2023-05-22T17:16:54.357Z,2.90
2023-05-22T17:19:21.627Z,2.78
2023-05-22T17:21:48.344Z,2.88
2023-05-22T17:24:15.149Z,3.00
2023-05-22T17:26:42.233Z,3.25
2023-05-22T17:29:10.971Z,3.13
2023-05-22T17:31:39.491Z,2.80
2023-05-22T17:34:06.593Z,2.83
2023-05-22T17:36:33.547Z,2.97
2023-05-22T17:39:00.608Z,2.90
2023-05-22T17:41:27.347Z,2.83
2023-05-22T17:43:55.905Z,2.95
2023-05-22T17:46:22.995Z,3.40
2023-05-22T17:48:49.700Z,3.00
2023-05-22T17:51:16.461Z,2.92
2023-05-22T17:53:43.160Z,2.80
2023-05-22T17:56:09.997Z,2.97
2023-05-22T17:58:36.646Z,3.10
2023-05-22T18:01:03.395Z,2.58
2023-05-22T18:03:30.303Z,3.00
2023-05-22T18:05:57.206Z,3.00
2023-05-22T18:08:23.991Z,2.85
2023-05-22T18:10:50.763Z,3.30
2023-05-22T18:13:19.350Z,2.67
2023-05-22T18:15:46.159Z,2.90
2023-05-22T18:18:13.272Z,3.25
2023-05-22T18:20:40.272Z,3.00
2023-05-22T18:23:07.195Z,3.13
2023-05-22T18:25:33.859Z,2.92
2023-05-22T18:28:00.652Z,3.28
2023-05-22T18:30:27.341Z,3.42
2023-05-22T18:32:54.099Z,2.92
2023-05-22T18:35:20.887Z,3.00
2023-05-22T18:37:47.570Z,2.95
2023-05-22T18:40:15.364Z,2.88
2023-05-22T18:42:43.398Z,3.00
2023-05-22T18:45:11.656Z,3.40
2023-05-22T18:47:40.179Z,2.75
2023-05-22T18:50:07.626Z,3.10
2023-05-22T18:52:34.537Z,3.10
2023-05-22T18:55:01.229Z,2.90
2023-05-22T18:57:28.032Z,3.10
2023-05-22T18:59:54.774Z,3.15
2023-05-22T19:02:22.081Z,3.35
2023-05-22T19:04:50.052Z,3.20
2023-05-22T19:07:16.888Z,2.90
2023-05-22T19:09:43.834Z,2.72
2023-05-22T19:12:10.570Z,2.88
2023-05-22T19:14:37.365Z,3.20
2023-05-22T19:17:04.307Z,2.88
2023-05-22T19:19:31.251Z,3.13
2023-05-22T19:21:58.059Z,3.10
2023-05-22T19:24:26.346Z,2.95
2023-05-22T19:26:53.052Z,3.55
2023-05-22T19:29:19.823Z,3.08
2023-05-22T19:31:46.591Z,3.20
2023-05-22T19:34:13.343Z,3.13
2023-05-22T19:36:40.057Z,3.08
2023-05-22T19:39:06.757Z,3.10
2023-05-22T19:41:33.461Z,3.40
2023-05-22T19:44:00.224Z,3.15
2023-05-22T19:46:27.039Z,3.30
2023-05-22T19:48:53.867Z,3.05
2023-05-22T19:51:20.754Z,3.42
2023-05-22T19:53:47.501Z,3.30
2023-05-22T19:56:14.149Z,3.30
2023-05-22T19:58:40.947Z,3.50
2023-05-22T20:01:07.614Z,3.45
2023-05-22T20:03:34.446Z,3.70
2023-05-22T20:06:01.250Z,3.50
2023-05-22T20:08:28.529Z,3.58
2023-05-22T20:10:55.381Z,3.78
2023-05-22T20:13:22.274Z,3.78
2023-05-22T20:15:51.229Z,3.70
2023-05-22T20:18:18.638Z,3.58
2023-05-22T20:20:45.390Z,3.70
2023-05-22T20:23:12.114Z,3.33
2023-05-22T20:25:39.281Z,3.60
2023-05-22T20:28:06.657Z,3.40
2023-05-22T20:30:33.320Z,3.50
2023-05-22T20:33:00.082Z,3.97
2023-05-22T20:35:26.952Z,3.70
2023-05-22T20:37:53.776Z,3.80
2023-05-22T20:40:20.594Z,3.67
2023-05-22T20:42:47.676Z,3.65
2023-05-22T20:45:15.804Z,3.80
2023-05-22T20:47:43.478Z,3.78
2023-05-22T20:50:11.182Z,3.88
2023-05-22T20:52:37.923Z,3.78
2023-05-22T20:55:05.536Z,3.83
2023-05-22T20:57:32.326Z,3.78
2023-05-22T20:59:59.426Z,4.00
2023-05-22T21:02:26.336Z,3.70
2023-05-22T21:04:53.416Z,3.78
2023-05-22T21:07:20.228Z,4.15
2023-05-22T21:09:46.965Z,3.45
2023-05-22T21:12:13.714Z,3.60
2023-05-22T21:14:40.486Z,3.90
2023-05-22T21:17:07.332Z,4.00
2023-05-22T21:19:34.191Z,3.53
2023-05-22T21:22:00.889Z,3.95
2023-05-22T21:24:27.790Z,3.83
2023-05-22T21:26:54.468Z,3.80
2023-05-22T21:29:21.161Z,3.72
2023-05-22T21:31:47.868Z,3.95
2023-05-22T21:34:14.822Z,4.07
2023-05-22T21:36:41.633Z,4.38
2023-05-22T21:39:08.424Z,4.20
2023-05-22T21:41:35.205Z,4.07
2023-05-22T21:44:01.929Z,4.30
2023-05-22T21:46:28.653Z,4.22
2023-05-22T21:48:55.365Z,4.20
2023-05-22T21:51:22.035Z,4.38
2023-05-22T21:53:48.740Z,4.28
2023-05-22T21:56:15.511Z,4.05
2023-05-22T21:58:42.534Z,4.30
2023-05-22T22:01:10.234Z,4.28
2023-05-22T22:03:38.766Z,4.30
2023-05-22T22:06:05.895Z,4.25
2023-05-22T22:08:32.659Z,4.22
2023-05-22T22:10:59.723Z,4.20
2023-05-22T22:13:26.463Z,4.10
2023-05-22T22:15:53.623Z,4.55
2023-05-22T22:18:20.593Z,4.80
2023-05-22T22:20:50.216Z,4.50
2023-05-22T22:23:17.234Z,4.40
2023-05-22T22:25:44.076Z,4.28
2023-05-22T22:28:11.418Z,4.20
2023-05-22T22:30:38.416Z,4.20
2023-05-22T22:33:05.337Z,4.38
2023-05-22T22:35:32.053Z,4.40
2023-05-22T22:37:58.822Z,4.47
2023-05-22T22:40:26.844Z,4.22
2023-05-22T22:42:53.793Z,4.38
2023-05-22T22:45:20.708Z,4.50
2023-05-22T22:47:47.476Z,4.47
2023-05-22T22:50:14.283Z,4.40
2023-05-22T22:52:45.353Z,4.35
2023-05-22T22:55:12.489Z,4.53
2023-05-22T22:57:39.362Z,4.47
2023-05-22T23:00:08.413Z,4.57
2023-05-22T23:02:35.210Z,4.65
2023-05-22T23:05:02.007Z,4.60
2023-05-22T23:07:28.760Z,4.75
2023-05-22T23:09:55.592Z,4.60
2023-05-22T23:12:22.363Z,4.80
2023-05-22T23:14:50.562Z,4.57
2023-05-22T23:17:17.388Z,4.90
2023-05-22T23:19:44.458Z,4.65
2023-05-22T23:22:11.257Z,4.50
2023-05-22T23:24:38.080Z,4.45
2023-05-22T23:27:05.375Z,4.30
2023-05-22T23:29:32.096Z,4.57
2023-05-22T23:31:58.897Z,4.57
2023-05-22T23:34:25.999Z,5.05
2023-05-22T23:36:52.715Z,4.40
2023-05-22T23:39:19.418Z,4.90
2023-05-22T23:41:46.117Z,4.90
2023-05-22T23:44:13.002Z,4.55
2023-05-22T23:46:39.857Z,4.40
2023-05-22T23:49:07.613Z,4.72
2023-05-22T23:51:34.452Z,4.60
2023-05-22T23:54:01.437Z,4.47
2023-05-22T23:56:28.156Z,4.80
2023-05-22T23:58:55.026Z,5.05
